Terminal Aerodrome Forecast
Issued by NWS Knoxville/Tri Cities, TN

Home | Current Version | Previous Version | Text Only | Print | Product List | Glossary On
Versions: 1 2 3 4 5 6 7 8 9 10 11 12 13 14 15 16
000
FTUS44 KMRX 181720
TAFTRI
TAF
KTRI 181720Z 1818/1918 21015G25KT P6SM OVC060
     FM190200 23018G28KT 4SM SHRA OVC030
     FM190600 26020G30KT P6SM OVC020
     FM191200 27012KT P6SM OVC020=

USA.gov is the U.S. government's official web portal to all federal, state and local government web resources and services.